Time;durP1;ratioP1;P1;durP2;ratioP2;P2;SDS_P1;SDS_P2;PMS_P1;PMS_P2;Temp;Humidity;BMP_temperature;BMP_pressure;BME280_temperature;BME280_humidity;BME280_pressure;Samples;Min_cycle;Max_cycle;Signal;HPM_P1;HPM_P2
2020/12/31 00:01:29;;;;;;;5.75;3.08;;;3.40;99.90;;;;;;6766317;87;20333;-74
2020/12/31 00:11:29;;;;;;;5.35;2.75;;;3.50;99.90;;;;;;6771071;87;20195;-73
2020/12/31 00:21:30;;;;;;;5.53;2.87;;;3.60;99.90;;;;;;6763470;87;20198;-74
2020/12/31 00:31:31;;;;;;;6.60;3.50;;;3.80;99.90;;;;;;6767732;87;20297;-74
2020/12/31 00:41:31;;;;;;;5.60;2.60;;;3.90;99.90;;;;;;6763260;87;20181;-73
2020/12/31 00:51:32;;;;;;;4.45;2.28;;;4.00;99.90;;;;;;6760865;87;20499;-74
2020/12/31 01:01:33;;;;;;;6.18;3.10;;;4.00;99.90;;;;;;6760546;87;20180;-73
2020/12/31 01:11:36;;;;;;;6.03;3.20;;;3.90;99.90;;;;;;6766807;87;20207;-73
2020/12/31 01:21:36;;;;;;;5.57;3.20;;;4.00;99.90;;;;;;6758888;87;20185;-74
2020/12/31 01:31:37;;;;;;;7.70;3.55;;;4.00;99.90;;;;;;6761785;87;20247;-73
2020/12/31 01:41:37;;;;;;;6.32;3.33;;;4.00;99.90;;;;;;6761252;87;20344;-73
2020/12/31 01:51:40;;;;;;;9.18;3.90;;;3.90;99.90;;;;;;6764730;87;20720;-73
2020/12/31 02:01:41;;;;;;;5.35;2.97;;;4.00;99.90;;;;;;6765787;87;20744;-72
2020/12/31 02:11:42;;;;;;;7.05;3.05;;;4.10;99.90;;;;;;6765609;87;20204;-73
2020/12/31 02:21:47;;;;;;;7.47;3.55;;;4.10;99.90;;;;;;6767306;87;20226;-72
2020/12/31 02:31:48;;;;;;;7.18;3.40;;;4.10;99.90;;;;;;6765575;87;20176;-73
2020/12/31 02:41:48;;;;;;;6.47;2.78;;;4.10;99.90;;;;;;6761700;87;20192;-73
2020/12/31 02:51:49;;;;;;;6.95;3.37;;;4.20;99.90;;;;;;6758561;87;20288;-73
2020/12/31 03:01:53;;;;;;;5.68;3.10;;;4.20;99.90;;;;;;6764645;87;20210;-74
2020/12/31 03:11:53;;;;;;;6.68;3.00;;;4.20;99.90;;;;;;6762350;87;20198;-74
2020/12/31 03:21:54;;;;;;;6.80;3.00;;;4.20;99.90;;;;;;6763869;87;20725;-73
2020/12/31 03:31:54;;;;;;;5.20;3.10;;;4.20;99.90;;;;;;6758329;87;20192;-74
2020/12/31 03:41:55;;;;;;;5.68;3.08;;;4.20;99.90;;;;;;6758695;87;20191;-73
2020/12/31 03:51:55;;;;;;;5.55;2.87;;;4.20;99.90;;;;;;6761804;87;20200;-74
2020/12/31 04:01:56;;;;;;;6.47;3.20;;;4.30;99.90;;;;;;6761839;87;20196;-74
2020/12/31 04:11:58;;;;;;;6.82;2.87;;;4.30;99.90;;;;;;6771887;76;20553;-74
2020/12/31 04:21:59;;;;;;;5.47;2.78;;;4.20;99.90;;;;;;6752025;88;20207;-74
2020/12/31 04:31:59;;;;;;;4.57;2.05;;;4.30;99.90;;;;;;6756996;87;20600;-75
2020/12/31 04:42:00;;;;;;;4.20;2.30;;;4.20;99.90;;;;;;6757829;88;20647;-74
2020/12/31 04:52:01;;;;;;;4.22;2.20;;;4.20;99.90;;;;;;6759780;88;20243;-74
2020/12/31 05:02:05;;;;;;;3.83;2.30;;;4.30;99.90;;;;;;6764055;87;20601;-74
2020/12/31 05:12:05;;;;;;;4.78;2.28;;;4.20;99.90;;;;;;6758672;87;20222;-74
2020/12/31 05:22:17;;;;;;;4.95;2.47;;;4.10;99.90;;;;;;6762113;87;20600;-74
2020/12/31 05:32:21;;;;;;;4.85;2.83;;;4.10;99.90;;;;;;6765815;88;20283;-74
2020/12/31 05:42:23;;;;;;;5.80;2.78;;;3.90;99.90;;;;;;6762001;87;20302;-74
2020/12/31 05:52:37;;;;;;;5.62;2.83;;;3.70;99.90;;;;;;6759572;87;20285;-74
2020/12/31 06:02:48;;;;;;;6.95;3.58;;;3.40;99.90;;;;;;6763393;88;20204;-74
2020/12/31 06:12:51;;;;;;;7.45;3.55;;;3.10;99.90;;;;;;6764381;87;20272;-74
2020/12/31 06:22:59;;;;;;;6.43;3.35;;;3.00;99.90;;;;;;6747977;88;20232;-74
2020/12/31 06:33:28;;;;;;;5.70;2.85;;;2.90;99.90;;;;;;6748798;88;20189;-74
2020/12/31 06:43:34;;;;;;;7.65;4.10;;;2.80;99.90;;;;;;6742953;88;20672;-74
2020/12/31 06:53:43;;;;;;;8.20;4.17;;;2.80;99.90;;;;;;6750097;88;20682;-74
2020/12/31 07:03:45;;;;;;;12.82;5.70;;;2.70;99.90;;;;;;6743898;88;20211;-74
2020/12/31 07:13:45;;;;;;;12.70;6.30;;;2.60;99.90;;;;;;6749347;87;20197;-74
2020/12/31 07:23:46;;;;;;;13.52;6.00;;;2.60;99.90;;;;;;6724271;88;20204;-74
2020/12/31 07:33:49;;;;;;;7.50;3.65;;;2.60;99.90;;;;;;6742047;88;20196;-74
2020/12/31 07:43:49;;;;;;;13.45;5.28;;;2.60;99.90;;;;;;6761300;87;20275;-73
2020/12/31 07:53:59;;;;;;;11.12;5.97;;;2.70;99.90;;;;;;6754363;88;20197;-74
2020/12/31 08:04:10;;;;;;;7.18;3.87;;;2.60;99.90;;;;;;6729592;88;20220;-73
2020/12/31 08:14:10;;;;;;;9.27;4.85;;;2.60;99.90;;;;;;6740341;87;20227;-72
2020/12/31 08:24:16;;;;;;;6.32;3.53;;;2.70;99.90;;;;;;6736332;88;20715;-74
2020/12/31 08:34:25;;;;;;;11.93;4.60;;;2.70;99.90;;;;;;6736784;88;20187;-72
2020/12/31 08:44:26;;;;;;;10.60;4.72;;;2.70;99.90;;;;;;6758087;88;20231;-75
2020/12/31 08:54:27;;;;;;;9.98;4.28;;;2.60;99.90;;;;;;6771785;88;20801;-78
2020/12/31 09:04:27;;;;;;;8.02;3.85;;;2.60;99.90;;;;;;6752088;87;20214;-75
2020/12/31 09:14:29;;;;;;;8.35;3.50;;;2.60;99.90;;;;;;6747796;87;20285;-77
2020/12/31 09:24:34;;;;;;;6.70;3.05;;;2.60;99.90;;;;;;6760025;88;20678;-74
2020/12/31 09:34:35;;;;;;;7.75;3.83;;;2.60;99.90;;;;;;6760827;87;20219;-73
2020/12/31 09:44:36;;;;;;;7.68;3.65;;;2.60;99.90;;;;;;6740867;87;20198;-74
2020/12/31 09:54:37;;;;;;;6.87;3.58;;;2.50;99.90;;;;;;6741264;88;20206;-73
2020/12/31 10:04:38;;;;;;;8.68;3.95;;;2.50;99.90;;;;;;6738243;88;20618;-72
2020/12/31 10:14:38;;;;;;;6.50;3.20;;;2.60;99.90;;;;;;6733644;88;20687;-74
2020/12/31 10:24:40;;;;;;;5.05;2.78;;;2.60;99.90;;;;;;6757296;88;20660;-72
2020/12/31 10:34:41;;;;;;;6.57;3.40;;;2.60;99.90;;;;;;6759496;87;21076;-72
2020/12/31 10:44:41;;;;;;;7.85;3.12;;;2.70;99.90;;;;;;6751620;87;20192;-74
2020/12/31 10:54:42;;;;;;;5.28;2.92;;;2.80;99.90;;;;;;6754689;88;20546;-73
2020/12/31 11:04:42;;;;;;;4.65;2.62;;;2.80;99.90;;;;;;6749536;87;20293;-73
2020/12/31 11:14:43;;;;;;;3.75;2.03;;;3.00;99.90;;;;;;6751545;88;20244;-72
2020/12/31 11:24:43;;;;;;;5.03;2.53;;;2.80;99.90;;;;;;6755383;88;20311;-74
2020/12/31 11:34:44;;;;;;;5.25;2.83;;;2.70;99.90;;;;;;6747904;88;20192;-71
2020/12/31 11:44:45;;;;;;;3.78;2.28;;;2.80;99.90;;;;;;6748612;88;20265;-73
2020/12/31 11:54:46;;;;;;;3.22;1.85;;;3.10;99.90;;;;;;6745391;87;20563;-70
2020/12/31 12:04:46;;;;;;;3.45;1.98;;;3.20;99.90;;;;;;6755730;87;20192;-70
2020/12/31 12:14:47;;;;;;;2.80;1.70;;;3.30;99.90;;;;;;6760304;87;20349;-76
2020/12/31 12:24:47;;;;;;;3.55;1.83;;;3.30;99.90;;;;;;6761196;88;20302;-73
2020/12/31 12:34:48;;;;;;;2.58;1.50;;;3.60;99.90;;;;;;6756790;88;20335;-70
2020/12/31 12:44:49;;;;;;;4.05;1.40;;;3.80;99.90;;;;;;6754902;87;20169;-73
2020/12/31 12:54:49;;;;;;;3.40;1.73;;;3.70;99.90;;;;;;6738949;87;20222;-70
2020/12/31 13:04:50;;;;;;;2.58;1.25;;;3.90;99.90;;;;;;6743154;88;20618;-71
2020/12/31 13:14:51;;;;;;;2.28;1.20;;;3.90;99.90;;;;;;6749061;88;20241;-74
2020/12/31 13:24:51;;;;;;;2.83;1.30;;;4.00;99.90;;;;;;6744570;88;20197;-71
2020/12/31 13:34:52;;;;;;;2.17;1.40;;;4.10;99.90;;;;;;6742536;88;21015;-71
2020/12/31 13:44:52;;;;;;;3.42;1.17;;;4.20;99.90;;;;;;6739073;88;21153;-71
2020/12/31 13:54:53;;;;;;;2.50;1.20;;;4.10;99.90;;;;;;6747304;88;20274;-71
2020/12/31 14:04:53;;;;;;;3.05;1.55;;;3.90;99.90;;;;;;6744637;87;20182;-72
2020/12/31 14:14:54;;;;;;;2.25;1.25;;;3.90;99.90;;;;;;6744135;87;20234;-71
2020/12/31 14:24:54;;;;;;;2.92;1.10;;;4.00;99.90;;;;;;6746702;88;20809;-71
2020/12/31 14:34:55;;;;;;;2.70;1.30;;;3.80;99.90;;;;;;6740894;87;20216;-72
2020/12/31 14:44:55;;;;;;;2.80;1.45;;;3.70;99.90;;;;;;6743412;88;20262;-71
2020/12/31 14:54:56;;;;;;;3.80;1.70;;;3.90;99.90;;;;;;6737709;88;20627;-72
2020/12/31 15:04:56;;;;;;;3.60;1.62;;;3.90;99.90;;;;;;6737699;88;20379;-71
2020/12/31 15:14:57;;;;;;;3.60;1.48;;;3.90;99.90;;;;;;6741007;87;20275;-71
2020/12/31 15:24:57;;;;;;;3.28;1.58;;;3.80;99.90;;;;;;6741955;88;20290;-71
2020/12/31 15:34:58;;;;;;;3.28;1.60;;;3.70;99.90;;;;;;6746098;88;20287;-72
2020/12/31 15:44:58;;;;;;;3.90;1.62;;;3.70;99.90;;;;;;6745385;88;20778;-72
2020/12/31 15:54:59;;;;;;;2.83;1.62;;;3.70;99.90;;;;;;6741754;87;20205;-72
2020/12/31 16:05:13;;;;;;;5.50;3.05;;;3.70;99.90;;;;;;6740954;87;20655;-73
2020/12/31 16:15:15;;;;;;;4.87;2.62;;;3.70;99.90;;;;;;6750373;87;20216;-74
2020/12/31 16:25:16;;;;;;;4.85;2.50;;;3.60;99.90;;;;;;6749391;88;20180;-75
2020/12/31 16:35:17;;;;;;;4.03;2.20;;;3.60;99.90;;;;;;6749681;88;20310;-74
2020/12/31 16:45:18;;;;;;;6.70;3.05;;;3.50;99.90;;;;;;6738743;88;21381;-74
2020/12/31 16:55:18;;;;;;;4.53;2.72;;;3.50;99.90;;;;;;6741733;88;20292;-74
2020/12/31 17:05:19;;;;;;;7.87;3.35;;;3.40;99.90;;;;;;6745854;88;20196;-75
2020/12/31 17:15:19;;;;;;;7.05;4.15;;;3.30;99.90;;;;;;6744378;87;20534;-74
2020/12/31 17:25:20;;;;;;;14.27;6.32;;;3.30;99.90;;;;;;6743230;88;20180;-73
2020/12/31 17:35:21;;;;;;;8.00;4.57;;;3.30;99.90;;;;;;6738454;88;20223;-73
2020/12/31 17:45:21;;;;;;;7.15;4.20;;;3.20;99.90;;;;;;6738771;88;20245;-73
2020/12/31 17:55:22;;;;;;;8.98;4.68;;;3.20;99.90;;;;;;6747315;76;20583;-74
2020/12/31 18:05:22;;;;;;;20.58;9.18;;;3.10;99.90;;;;;;6739928;88;20240;-73
2020/12/31 18:15:22;;;;;;;8.70;5.28;;;3.10;99.90;;;;;;6753393;87;20223;-74
2020/12/31 18:25:23;;;;;;;13.15;7.95;;;3.10;99.90;;;;;;6759016;87;20193;-73
2020/12/31 18:35:25;;;;;;;12.93;7.10;;;3.20;99.90;;;;;;6754632;87;20743;-74
2020/12/31 18:45:26;;;;;;;10.40;6.10;;;3.20;99.90;;;;;;6756264;87;20278;-74
2020/12/31 18:55:27;;;;;;;10.02;6.12;;;3.20;99.90;;;;;;6752088;87;20327;-73
2020/12/31 19:05:27;;;;;;;10.40;6.03;;;3.20;99.90;;;;;;6759878;87;20223;-73
2020/12/31 19:15:28;;;;;;;11.68;5.22;;;3.10;99.90;;;;;;6755494;87;20196;-73
2020/12/31 19:25:28;;;;;;;11.27;6.28;;;3.20;99.90;;;;;;6761000;87;20244;-73
2020/12/31 19:35:29;;;;;;;11.02;5.80;;;3.20;99.90;;;;;;6758938;87;20219;-73
2020/12/31 19:45:29;;;;;;;21.85;11.63;;;3.20;99.90;;;;;;6759293;87;20670;-72
2020/12/31 19:55:30;;;;;;;15.30;8.85;;;3.10;99.90;;;;;;6744327;87;20312;-72
2020/12/31 20:05:31;;;;;;;17.83;8.95;;;3.10;99.90;;;;;;6753856;88;20204;-74
2020/12/31 20:15:31;;;;;;;12.95;7.40;;;3.10;99.90;;;;;;6750060;87;20233;-72
2020/12/31 20:25:32;;;;;;;12.80;7.32;;;3.10;99.90;;;;;;6757093;87;20797;-72
2020/12/31 20:35:33;;;;;;;11.05;6.90;;;3.10;99.90;;;;;;6754546;87;20200;-72
2020/12/31 20:45:33;;;;;;;12.25;6.53;;;3.00;99.90;;;;;;6754558;87;20209;-72
2020/12/31 20:55:34;;;;;;;10.48;6.10;;;3.00;99.90;;;;;;6752876;87;20193;-74
2020/12/31 21:05:34;;;;;;;8.98;5.72;;;3.10;99.90;;;;;;6754827;87;20195;-72
2020/12/31 21:15:35;;;;;;;10.73;6.10;;;2.90;99.90;;;;;;6753432;87;20694;-70
2020/12/31 21:25:35;;;;;;;10.88;6.28;;;3.00;99.90;;;;;;6755625;87;20320;-71
2020/12/31 21:35:36;;;;;;;13.70;7.00;;;3.10;99.90;;;;;;6749947;87;20180;-71
2020/12/31 21:45:36;;;;;;;13.70;7.22;;;2.90;99.90;;;;;;6756810;87;20180;-71
2020/12/31 21:55:37;;;;;;;13.65;7.37;;;3.00;99.90;;;;;;6750436;87;20188;-72
2020/12/31 22:05:38;;;;;;;14.45;7.62;;;3.00;99.90;;;;;;6746805;87;20181;-73
2020/12/31 22:15:38;;;;;;;14.93;7.93;;;2.90;99.90;;;;;;6751459;88;20212;-72
2020/12/31 22:25:39;;;;;;;15.23;8.18;;;2.90;99.90;;;;;;6752492;87;20526;-72
2020/12/31 22:35:39;;;;;;;13.38;7.53;;;2.80;99.90;;;;;;6757228;87;20605;-72
2020/12/31 22:45:40;;;;;;;11.30;7.07;;;2.70;99.90;;;;;;6761893;87;20201;-73
2020/12/31 22:55:41;;;;;;;13.13;7.50;;;2.50;99.90;;;;;;6764727;87;20340;-73
2020/12/31 23:05:41;;;;;;;14.70;8.05;;;2.30;99.90;;;;;;6756160;87;20404;-73
2020/12/31 23:15:42;;;;;;;21.80;10.23;;;2.40;99.90;;;;;;6760482;87;20274;-74
2020/12/31 23:25:43;;;;;;;42.53;20.80;;;2.40;99.90;;;;;;6758638;87;20200;-75
2020/12/31 23:35:43;;;;;;;43.58;22.02;;;2.50;99.90;;;;;;6744461;87;20245;-74
2020/12/31 23:45:44;;;;;;;21.95;12.37;;;2.30;99.90;;;;;;6755627;87;20283;-74
2020/12/31 23:55:44;;;;;;;20.23;10.55;;;2.30;99.90;;;;;;6754393;87;20696;-74
